Time;durP1;ratioP1;P1;durP2;ratioP2;P2;SDS_P1;SDS_P2;PMS_P1;PMS_P2;Temp;Humidity;BMP_temperature;BMP_pressure;BME280_temperature;BME280_humidity;BME280_pressure;Samples;Min_cycle;Max_cycle;Signal;HPM_P1;HPM_P2
2023/07/01 00:01:00;;;;;;;7.78;2.42;;;;;;;;;;4877560;29;20039;-60
2023/07/01 00:03:30;;;;;;;5.50;1.95;;;;;;;;;;4877892;29;20112;-60
2023/07/01 00:05:59;;;;;;;6.85;2.45;;;;;;;;;;4876569;29;20035;-61
2023/07/01 00:08:25;;;;;;;7.60;2.03;;;;;;;;;;4861945;29;20036;-61
2023/07/01 00:10:51;;;;;;;7.15;2.25;;;;;;;;;;4877066;29;20744;-61
2023/07/01 00:13:17;;;;;;;6.60;1.85;;;;;;;;;;4877530;29;20043;-61
2023/07/01 00:15:43;;;;;;;12.45;2.80;;;;;;;;;;4877529;29;21231;-61
2023/07/01 00:18:09;;;;;;;8.10;1.95;;;;;;;;;;4878070;29;20055;-60
2023/07/01 00:20:35;;;;;;;10.63;2.08;;;;;;;;;;4878073;29;20036;-61
2023/07/01 00:23:01;;;;;;;7.82;2.00;;;;;;;;;;4877266;29;20032;-61
2023/07/01 00:25:27;;;;;;;6.60;2.22;;;;;;;;;;4876277;29;20066;-61
2023/07/01 00:27:53;;;;;;;8.95;3.25;;;;;;;;;;4877146;29;20115;-60
2023/07/01 00:30:19;;;;;;;7.78;1.85;;;;;;;;;;4878260;29;20040;-61
2023/07/01 00:32:45;;;;;;;6.70;2.05;;;;;;;;;;4877365;29;20036;-60
2023/07/01 00:35:11;;;;;;;6.05;2.10;;;;;;;;;;4877425;29;20127;-60
2023/07/01 00:37:37;;;;;;;6.20;2.00;;;;;;;;;;4876911;29;20036;-61
2023/07/01 00:40:04;;;;;;;7.75;2.05;;;;;;;;;;4876769;29;20040;-61
2023/07/01 00:42:30;;;;;;;7.00;2.28;;;;;;;;;;4876110;29;20032;-60
2023/07/01 00:44:56;;;;;;;12.68;2.53;;;;;;;;;;4876690;29;20649;-61
2023/07/01 00:47:22;;;;;;;7.38;2.58;;;;;;;;;;4877888;29;20963;-61
2023/07/01 00:49:48;;;;;;;9.57;2.13;;;;;;;;;;4876209;29;20051;-61
2023/07/01 00:52:14;;;;;;;11.27;2.47;;;;;;;;;;4877239;29;20131;-61
2023/07/01 00:54:40;;;;;;;9.45;2.33;;;;;;;;;;4877643;29;20048;-61
2023/07/01 00:57:06;;;;;;;8.05;2.03;;;;;;;;;;4876344;29;20076;-60
2023/07/01 00:59:33;;;;;;;10.07;2.35;;;;;;;;;;4874835;29;20102;-61
2023/07/01 01:02:05;;;;;;;7.95;1.98;;;;;;;;;;4876455;29;20158;-61
2023/07/01 01:04:36;;;;;;;8.55;2.42;;;;;;;;;;4877756;29;20032;-61
2023/07/01 01:07:04;;;;;;;8.20;2.40;;;;;;;;;;4876109;29;20040;-61
2023/07/01 01:09:38;;;;;;;7.97;2.17;;;;;;;;;;4877069;29;20044;-61
2023/07/01 01:12:07;;;;;;;6.35;1.63;;;;;;;;;;4876417;29;20043;-61
2023/07/01 01:14:33;;;;;;;9.20;2.33;;;;;;;;;;4876261;29;20044;-60
2023/07/01 01:17:04;;;;;;;9.40;2.67;;;;;;;;;;4877650;29;20111;-61
2023/07/01 01:19:45;;;;;;;5.90;1.85;;;;;;;;;;4877445;29;20770;-60
2023/07/01 01:22:14;;;;;;;8.07;2.00;;;;;;;;;;4876905;29;20100;-60
2023/07/01 01:24:42;;;;;;;6.63;2.22;;;;;;;;;;4877608;29;20042;-61
2023/07/01 01:27:10;;;;;;;7.70;2.05;;;;;;;;;;4876351;29;20029;-61
2023/07/01 01:29:36;;;;;;;13.43;2.80;;;;;;;;;;4876755;29;20063;-61
2023/07/01 01:32:02;;;;;;;9.93;1.73;;;;;;;;;;4877879;29;20040;-61
2023/07/01 01:34:28;;;;;;;5.57;2.22;;;;;;;;;;4877321;29;20072;-60
2023/07/01 01:36:57;;;;;;;9.23;2.15;;;;;;;;;;4876391;29;20031;-61
2023/07/01 01:39:27;;;;;;;7.00;2.30;;;;;;;;;;4877330;29;20036;-61
2023/07/01 01:41:58;;;;;;;5.65;2.10;;;;;;;;;;4876318;29;20096;-60
2023/07/01 01:44:44;;;;;;;8.88;2.28;;;;;;;;;;4877243;29;20036;-61
2023/07/01 01:47:11;;;;;;;7.85;2.42;;;;;;;;;;4877867;29;20652;-62
2023/07/01 01:49:37;;;;;;;8.52;2.50;;;;;;;;;;4877599;29;20059;-61
2023/07/01 01:52:03;;;;;;;14.02;2.72;;;;;;;;;;4877509;29;20463;-60
2023/07/01 01:54:29;;;;;;;7.70;2.58;;;;;;;;;;4877600;29;20035;-60
2023/07/01 01:56:56;;;;;;;8.40;2.50;;;;;;;;;;4876864;29;20039;-60
2023/07/01 01:59:22;;;;;;;6.47;2.20;;;;;;;;;;4877520;29;20312;-60
2023/07/01 02:01:48;;;;;;;8.73;2.65;;;;;;;;;;4876520;29;20039;-60
2023/07/01 02:04:14;;;;;;;8.73;1.85;;;;;;;;;;4877697;29;20043;-61
2023/07/01 02:06:40;;;;;;;9.23;2.83;;;;;;;;;;4876845;29;20040;-61
2023/07/01 02:09:06;;;;;;;5.22;2.33;;;;;;;;;;4877180;29;20043;-60
2023/07/01 02:11:32;;;;;;;8.90;2.60;;;;;;;;;;4875466;29;20040;-60
2023/07/01 02:13:59;;;;;;;5.38;2.15;;;;;;;;;;4876642;29;20044;-61
2023/07/01 02:16:25;;;;;;;6.50;2.58;;;;;;;;;;4876349;29;20040;-61
2023/07/01 02:18:51;;;;;;;7.22;2.13;;;;;;;;;;4875410;29;20083;-60
2023/07/01 02:21:17;;;;;;;7.13;2.55;;;;;;;;;;4877361;29;20040;-61
2023/07/01 02:23:43;;;;;;;9.57;2.72;;;;;;;;;;4876436;29;20040;-61
2023/07/01 02:26:10;;;;;;;10.02;2.70;;;;;;;;;;4860444;29;20475;-60
2023/07/01 02:28:36;;;;;;;8.57;3.05;;;;;;;;;;4876141;29;20647;-60
2023/07/01 02:31:03;;;;;;;10.13;3.05;;;;;;;;;;4877660;29;20044;-60
2023/07/01 02:33:29;;;;;;;10.20;3.25;;;;;;;;;;4877386;29;20188;-61
2023/07/01 02:35:55;;;;;;;10.07;2.58;;;;;;;;;;4876850;29;20044;-60
2023/07/01 02:38:21;;;;;;;6.25;2.50;;;;;;;;;;4877576;29;20087;-60
2023/07/01 02:40:47;;;;;;;8.38;2.95;;;;;;;;;;4878346;29;20071;-60
2023/07/01 02:43:13;;;;;;;6.43;2.38;;;;;;;;;;4877726;29;20507;-61
2023/07/01 02:45:40;;;;;;;7.32;2.35;;;;;;;;;;4877472;29;20907;-60
2023/07/01 02:48:06;;;;;;;5.30;2.20;;;;;;;;;;4876862;29;20933;-61
2023/07/01 02:50:32;;;;;;;8.40;2.72;;;;;;;;;;4877817;29;20036;-60
2023/07/01 02:52:58;;;;;;;6.50;2.90;;;;;;;;;;4877915;29;20032;-60
2023/07/01 02:55:30;;;;;;;6.68;2.92;;;;;;;;;;4878135;29;20149;-61
2023/07/01 02:57:56;;;;;;;8.20;2.42;;;;;;;;;;4877404;29;20052;-61
2023/07/01 03:00:22;;;;;;;7.15;2.70;;;;;;;;;;4877091;29;20111;-60
2023/07/01 03:02:48;;;;;;;6.95;2.30;;;;;;;;;;4876577;29;20047;-61
2023/07/01 03:05:19;;;;;;;7.25;2.80;;;;;;;;;;4876816;29;20547;-61
2023/07/01 03:07:45;;;;;;;7.90;2.28;;;;;;;;;;4876021;29;20191;-60
2023/07/01 03:10:11;;;;;;;11.13;2.83;;;;;;;;;;4876821;29;20039;-60
2023/07/01 03:12:37;;;;;;;9.30;2.92;;;;;;;;;;4877554;29;20040;-61
2023/07/01 03:15:03;;;;;;;6.38;3.25;;;;;;;;;;4877332;29;20039;-61
2023/07/01 03:17:29;;;;;;;9.13;3.90;;;;;;;;;;4877500;29;20053;-60
2023/07/01 03:19:55;;;;;;;10.00;3.03;;;;;;;;;;4877326;29;20043;-60
2023/07/01 03:22:21;;;;;;;6.90;3.50;;;;;;;;;;4879502;29;20484;-60
2023/07/01 03:24:47;;;;;;;8.85;3.38;;;;;;;;;;4879902;29;20795;-61
2023/07/01 03:27:13;;;;;;;10.73;3.45;;;;;;;;;;4878708;29;20064;-61
2023/07/01 03:29:39;;;;;;;6.70;3.30;;;;;;;;;;4880082;29;20082;-61
2023/07/01 03:32:06;;;;;;;10.73;3.88;;;;;;;;;;4880263;29;20071;-60
2023/07/01 03:34:32;;;;;;;10.90;3.67;;;;;;;;;;4881389;29;20040;-60
2023/07/01 03:36:58;;;;;;;8.07;3.60;;;;;;;;;;4880837;29;20880;-61
2023/07/01 03:39:24;;;;;;;8.15;4.22;;;;;;;;;;4880503;29;20043;-60
2023/07/01 03:41:50;;;;;;;10.50;3.67;;;;;;;;;;4881230;29;20039;-60
2023/07/01 03:44:16;;;;;;;8.18;4.13;;;;;;;;;;4881323;29;20087;-61
2023/07/01 03:46:42;;;;;;;8.95;3.60;;;;;;;;;;4880123;29;20123;-61
2023/07/01 03:49:08;;;;;;;7.32;3.47;;;;;;;;;;4864684;29;20408;-61
2023/07/01 03:51:34;;;;;;;6.57;3.85;;;;;;;;;;4881256;29;20040;-61
2023/07/01 03:54:00;;;;;;;7.47;3.42;;;;;;;;;;4879299;29;20040;-61
2023/07/01 03:56:26;;;;;;;9.32;3.58;;;;;;;;;;4880635;29;20054;-60
2023/07/01 03:58:52;;;;;;;6.68;3.05;;;;;;;;;;4880200;29;20460;-61
2023/07/01 04:01:18;;;;;;;8.35;3.75;;;;;;;;;;4879292;29;20130;-60
2023/07/01 04:03:45;;;;;;;8.57;3.33;;;;;;;;;;4880700;29;20054;-60
2023/07/01 04:06:11;;;;;;;10.85;3.55;;;;;;;;;;4864129;29;21833;-61
2023/07/01 04:08:37;;;;;;;8.50;4.00;;;;;;;;;;4878864;29;21157;-61
2023/07/01 04:11:03;;;;;;;7.28;3.40;;;;;;;;;;4878801;29;20373;-61
2023/07/01 04:13:29;;;;;;;7.28;3.80;;;;;;;;;;4877468;29;21051;-61
2023/07/01 04:15:55;;;;;;;7.75;4.05;;;;;;;;;;4878682;29;21008;-60
2023/07/01 04:18:21;;;;;;;9.35;4.00;;;;;;;;;;4878265;29;20738;-61
2023/07/01 04:20:47;;;;;;;8.70;3.83;;;;;;;;;;4879658;29;21798;-61
2023/07/01 04:23:13;;;;;;;7.88;3.58;;;;;;;;;;4878254;29;20044;-60
2023/07/01 04:25:40;;;;;;;7.72;3.60;;;;;;;;;;4878462;29;20117;-60
2023/07/01 04:28:08;;;;;;;6.60;3.08;;;;;;;;;;4878689;29;20111;-61
2023/07/01 04:30:34;;;;;;;6.93;3.65;;;;;;;;;;4878984;29;20104;-60
2023/07/01 04:33:00;;;;;;;13.05;3.60;;;;;;;;;;4878954;29;20044;-61
2023/07/01 04:35:26;;;;;;;9.75;3.55;;;;;;;;;;4879704;29;20032;-61
2023/07/01 04:37:52;;;;;;;6.30;3.53;;;;;;;;;;4878773;29;20043;-61
2023/07/01 04:40:18;;;;;;;6.97;3.45;;;;;;;;;;4878985;29;20040;-61
2023/07/01 04:42:44;;;;;;;9.10;3.83;;;;;;;;;;4880231;29;20121;-61
2023/07/01 04:45:10;;;;;;;7.63;3.58;;;;;;;;;;4879873;29;20714;-61
2023/07/01 04:47:38;;;;;;;8.07;3.05;;;;;;;;;;4879520;29;20051;-60
2023/07/01 04:50:04;;;;;;;11.18;3.92;;;;;;;;;;4880334;29;20484;-61
2023/07/01 04:52:30;;;;;;;8.73;3.50;;;;;;;;;;4878413;29;20040;-60
2023/07/01 04:54:56;;;;;;;8.60;3.78;;;;;;;;;;4878354;29;20036;-61
2023/07/01 04:57:22;;;;;;;17.50;3.65;;;;;;;;;;4879500;29;20100;-61
2023/07/01 04:59:48;;;;;;;7.07;3.17;;;;;;;;;;4878344;29;20033;-60
2023/07/01 05:02:14;;;;;;;11.70;3.78;;;;;;;;;;4878549;29;20032;-60
2023/07/01 05:04:40;;;;;;;8.27;4.00;;;;;;;;;;4879457;29;20055;-61
2023/07/01 05:07:06;;;;;;;9.05;4.20;;;;;;;;;;4879123;29;20054;-61
2023/07/01 05:09:33;;;;;;;13.57;4.40;;;;;;;;;;4878998;29;20143;-61
2023/07/01 05:11:59;;;;;;;11.40;4.40;;;;;;;;;;4879014;29;22448;-60
2023/07/01 05:14:25;;;;;;;11.10;4.45;;;;;;;;;;4879025;29;20661;-61
2023/07/01 05:16:51;;;;;;;9.75;4.20;;;;;;;;;;4877854;29;20051;-61
2023/07/01 05:19:17;;;;;;;9.02;4.18;;;;;;;;;;4879032;29;20032;-60
2023/07/01 05:21:50;;;;;;;13.63;4.60;;;;;;;;;;4879325;29;20043;-60
2023/07/01 05:24:16;;;;;;;9.25;4.10;;;;;;;;;;4878934;29;20555;-61
2023/07/01 05:26:46;;;;;;;10.48;4.00;;;;;;;;;;4878811;29;20515;-61
2023/07/01 05:29:12;;;;;;;10.02;4.93;;;;;;;;;;4878423;29;20162;-61
2023/07/01 05:31:39;;;;;;;8.75;3.80;;;;;;;;;;4878279;29;21280;-61
2023/07/01 05:34:05;;;;;;;9.00;4.40;;;;;;;;;;4878106;29;20559;-60
2023/07/01 05:36:31;;;;;;;7.10;3.90;;;;;;;;;;4879140;29;20487;-60
2023/07/01 05:38:57;;;;;;;6.03;3.78;;;;;;;;;;4877243;29;20048;-61
2023/07/01 05:41:23;;;;;;;8.55;4.20;;;;;;;;;;4862268;29;20112;-61
2023/07/01 05:43:50;;;;;;;11.95;5.43;;;;;;;;;;4876904;29;20496;-61
2023/07/01 05:46:16;;;;;;;9.95;4.78;;;;;;;;;;4878669;29;20723;-61
2023/07/01 05:48:42;;;;;;;9.68;4.18;;;;;;;;;;4878685;29;20060;-61
2023/07/01 05:51:09;;;;;;;7.22;4.22;;;;;;;;;;4878256;29;20167;-61
2023/07/01 05:53:35;;;;;;;9.05;4.18;;;;;;;;;;4878020;29;20036;-61
2023/07/01 05:56:02;;;;;;;8.40;4.03;;;;;;;;;;4877348;29;20091;-61
2023/07/01 05:58:28;;;;;;;8.02;4.43;;;;;;;;;;4877754;29;20032;-61
2023/07/01 06:00:54;;;;;;;8.70;4.40;;;;;;;;;;4877567;29;20043;-60
2023/07/01 06:03:20;;;;;;;7.32;4.13;;;;;;;;;;4876701;29;20190;-61
2023/07/01 06:05:46;;;;;;;13.50;4.80;;;;;;;;;;4877336;29;20036;-61
2023/07/01 06:08:12;;;;;;;9.50;4.68;;;;;;;;;;4877579;29;20044;-60
2023/07/01 06:10:38;;;;;;;9.82;4.95;;;;;;;;;;4862497;29;20091;-61
2023/07/01 06:13:04;;;;;;;7.20;4.82;;;;;;;;;;4877520;29;20667;-61
2023/07/01 06:15:30;;;;;;;14.00;5.25;;;;;;;;;;4877710;29;20511;-61
2023/07/01 06:17:57;;;;;;;10.07;5.35;;;;;;;;;;4876425;29;21156;-60
2023/07/01 06:20:23;;;;;;;7.88;5.00;;;;;;;;;;4877902;29;20046;-60
2023/07/01 06:22:49;;;;;;;9.48;5.53;;;;;;;;;;4861041;29;20392;-60
2023/07/01 06:25:15;;;;;;;9.55;5.90;;;;;;;;;;4876137;29;20827;-61
2023/07/01 06:27:41;;;;;;;8.77;5.18;;;;;;;;;;4875624;29;20035;-60
2023/07/01 06:30:07;;;;;;;9.00;5.60;;;;;;;;;;4874094;29;20040;-60
2023/07/01 06:32:33;;;;;;;9.35;5.32;;;;;;;;;;4877391;29;20032;-60
2023/07/01 06:34:59;;;;;;;10.27;5.03;;;;;;;;;;4876865;29;20048;-61
2023/07/01 06:37:25;;;;;;;8.73;5.22;;;;;;;;;;4859805;29;20036;-61
2023/07/01 06:39:52;;;;;;;10.55;5.90;;;;;;;;;;4877638;29;20621;-60
2023/07/01 06:42:18;;;;;;;9.50;5.80;;;;;;;;;;4876785;29;20095;-60
2023/07/01 06:44:45;;;;;;;7.13;5.20;;;;;;;;;;4876945;29;20103;-61
2023/07/01 06:47:11;;;;;;;11.10;5.30;;;;;;;;;;4877159;29;20032;-60
2023/07/01 06:49:37;;;;;;;8.88;5.50;;;;;;;;;;4875587;29;20049;-61
2023/07/01 06:52:03;;;;;;;8.60;4.80;;;;;;;;;;4878585;29;20091;-61
2023/07/01 06:54:29;;;;;;;7.22;5.15;;;;;;;;;;4877469;29;20091;-61
2023/07/01 06:56:55;;;;;;;9.68;5.15;;;;;;;;;;4881125;29;20047;-61
2023/07/01 06:59:22;;;;;;;7.80;4.82;;;;;;;;;;4879506;29;20141;-60
2023/07/01 07:01:48;;;;;;;7.10;4.63;;;;;;;;;;4880101;29;21885;-61
2023/07/01 07:04:14;;;;;;;8.63;5.30;;;;;;;;;;4881515;29;20444;-61
2023/07/01 07:06:40;;;;;;;6.07;4.55;;;;;;;;;;4881241;29;20040;-61
2023/07/01 07:09:06;;;;;;;8.48;4.35;;;;;;;;;;4881092;29;20032;-61
2023/07/01 07:11:32;;;;;;;8.35;4.43;;;;;;;;;;4881607;29;20043;-61
2023/07/01 07:13:58;;;;;;;8.32;4.13;;;;;;;;;;4880720;29;20044;-61
2023/07/01 07:16:27;;;;;;;6.38;4.20;;;;;;;;;;4881974;29;20039;-61
2023/07/01 07:18:53;;;;;;;5.68;3.72;;;;;;;;;;4881477;29;20048;-61
2023/07/01 07:21:19;;;;;;;5.78;3.55;;;;;;;;;;4881268;29;20491;-61
2023/07/01 07:23:45;;;;;;;5.53;3.60;;;;;;;;;;4881320;29;20047;-61
2023/07/01 07:26:14;;;;;;;6.72;4.15;;;;;;;;;;4879452;29;20032;-61
2023/07/01 07:28:40;;;;;;;5.38;3.80;;;;;;;;;;4878860;29;20033;-61
2023/07/01 07:31:06;;;;;;;5.53;3.40;;;;;;;;;;4879672;29;20040;-61
2023/07/01 07:33:32;;;;;;;4.88;3.70;;;;;;;;;;4880658;29;20491;-61
2023/07/01 07:35:58;;;;;;;7.35;4.00;;;;;;;;;;4880658;29;20072;-61
2023/07/01 07:38:24;;;;;;;5.05;3.58;;;;;;;;;;4879695;29;20037;-61
2023/07/01 07:40:50;;;;;;;6.32;3.78;;;;;;;;;;4880584;29;20032;-61
2023/07/01 07:43:16;;;;;;;5.50;3.58;;;;;;;;;;4878587;29;20441;-61
2023/07/01 07:45:42;;;;;;;6.85;3.90;;;;;;;;;;4880659;29;20083;-61
2023/07/01 07:48:08;;;;;;;5.03;3.05;;;;;;;;;;4879635;29;20066;-61
2023/07/01 07:50:35;;;;;;;5.13;3.08;;;;;;;;;;4879988;29;20996;-61
2023/07/01 07:53:02;;;;;;;5.75;3.42;;;;;;;;;;4880074;29;20180;-61
2023/07/01 07:55:33;;;;;;;5.72;3.67;;;;;;;;;;4879686;29;20076;-61
2023/07/01 07:57:59;;;;;;;4.93;3.38;;;;;;;;;;4880533;29;20052;-61
2023/07/01 08:00:25;;;;;;;4.75;3.63;;;;;;;;;;4879979;29;21148;-61
2023/07/01 08:02:51;;;;;;;5.18;3.35;;;;;;;;;;4878312;29;21797;-61
2023/07/01 08:05:17;;;;;;;5.28;3.92;;;;;;;;;;4878485;29;20572;-61
2023/07/01 08:07:44;;;;;;;6.30;3.50;;;;;;;;;;4878510;29;20046;-61
2023/07/01 08:10:10;;;;;;;5.10;3.50;;;;;;;;;;4880689;29;20064;-61
2023/07/01 08:12:36;;;;;;;4.35;2.85;;;;;;;;;;4880333;29;20857;-61
2023/07/01 08:15:02;;;;;;;4.57;3.05;;;;;;;;;;4879401;29;20032;-61
2023/07/01 08:17:28;;;;;;;5.13;3.38;;;;;;;;;;4879762;29;20044;-61
2023/07/01 08:19:54;;;;;;;5.13;3.58;;;;;;;;;;4879569;29;20037;-61
2023/07/01 08:22:21;;;;;;;5.18;3.40;;;;;;;;;;4879442;29;20036;-61
2023/07/01 08:24:47;;;;;;;4.82;3.25;;;;;;;;;;4879653;29;20048;-61
2023/07/01 08:27:13;;;;;;;4.57;3.40;;;;;;;;;;4878352;29;20036;-61
2023/07/01 08:29:39;;;;;;;7.68;3.60;;;;;;;;;;4876763;29;20967;-61
2023/07/01 08:32:05;;;;;;;4.30;3.08;;;;;;;;;;4878550;29;20143;-61
2023/07/01 08:34:31;;;;;;;4.05;2.78;;;;;;;;;;4878458;29;20218;-61
2023/07/01 08:36:57;;;;;;;7.03;3.55;;;;;;;;;;4878824;29;20043;-61
2023/07/01 08:39:24;;;;;;;7.65;3.83;;;;;;;;;;4877885;29;20063;-61
2023/07/01 08:41:57;;;;;;;7.07;3.25;;;;;;;;;;4875887;29;20674;-61
2023/07/01 08:44:25;;;;;;;4.80;3.13;;;;;;;;;;4877578;29;20040;-61
2023/07/01 08:46:53;;;;;;;7.75;3.13;;;;;;;;;;4878337;29;20036;-61
2023/07/01 08:49:21;;;;;;;4.60;2.72;;;;;;;;;;4877683;29;20043;-61
2023/07/01 08:51:49;;;;;;;4.30;2.70;;;;;;;;;;4877815;29;20519;-61
2023/07/01 08:54:15;;;;;;;5.45;3.30;;;;;;;;;;4877891;29;20036;-61
2023/07/01 08:56:42;;;;;;;5.57;3.28;;;;;;;;;;4876725;29;20036;-61
2023/07/01 08:59:08;;;;;;;5.95;2.90;;;;;;;;;;4877289;29;20032;-61
2023/07/01 09:01:34;;;;;;;7.28;3.50;;;;;;;;;;4861900;29;21506;-61
2023/07/01 09:04:02;;;;;;;4.55;3.03;;;;;;;;;;4876605;29;20124;-61
2023/07/01 09:06:28;;;;;;;4.45;2.78;;;;;;;;;;4878632;29;20770;-61
2023/07/01 09:08:54;;;;;;;5.78;2.88;;;;;;;;;;4877904;29;20156;-61
2023/07/01 09:11:20;;;;;;;7.15;2.75;;;;;;;;;;4877107;29;20047;-61
2023/07/01 09:13:46;;;;;;;4.40;2.45;;;;;;;;;;4878131;29;20472;-61
2023/07/01 09:16:12;;;;;;;4.07;2.65;;;;;;;;;;4876277;29;20077;-61
2023/07/01 09:18:43;;;;;;;4.70;2.22;;;;;;;;;;4877332;29;20040;-61
2023/07/01 09:21:19;;;;;;;4.05;2.22;;;;;;;;;;4877230;29;20079;-61
2023/07/01 09:23:45;;;;;;;2.85;1.92;;;;;;;;;;4877949;29;20116;-61
2023/07/01 09:26:11;;;;;;;5.28;1.90;;;;;;;;;;4877378;29;20424;-61
2023/07/01 09:28:38;;;;;;;4.47;2.33;;;;;;;;;;4877751;29;20032;-61
2023/07/01 09:31:06;;;;;;;3.15;2.13;;;;;;;;;;4876957;29;20492;-61
2023/07/01 09:33:34;;;;;;;3.15;1.88;;;;;;;;;;4876438;29;20050;-61
2023/07/01 09:36:01;;;;;;;3.60;2.30;;;;;;;;;;4879627;29;20041;-61
2023/07/01 09:38:28;;;;;;;4.50;1.92;;;;;;;;;;4882113;29;20059;-61
2023/07/01 09:40:54;;;;;;;2.72;1.70;;;;;;;;;;4881947;29;20047;-61
2023/07/01 09:43:20;;;;;;;2.92;1.80;;;;;;;;;;4881616;29;20112;-62
2023/07/01 09:45:53;;;;;;;2.92;1.80;;;;;;;;;;4881897;29;20041;-61
2023/07/01 09:48:20;;;;;;;3.50;1.77;;;;;;;;;;4881924;29;20123;-61
2023/07/01 09:50:47;;;;;;;4.07;1.73;;;;;;;;;;4881678;29;20055;-61
2023/07/01 09:53:19;;;;;;;2.15;1.20;;;;;;;;;;4880113;29;20036;-61
2023/07/01 09:55:46;;;;;;;1.95;1.23;;;;;;;;;;4879652;29;20062;-61
2023/07/01 09:58:12;;;;;;;1.23;0.90;;;;;;;;;;4879417;29;20566;-61
2023/07/01 10:00:38;;;;;;;1.55;0.80;;;;;;;;;;4881567;29;20746;-61
2023/07/01 10:03:04;;;;;;;3.72;1.00;;;;;;;;;;4880903;29;20038;-61
2023/07/01 10:05:30;;;;;;;3.63;1.30;;;;;;;;;;4879558;29;20119;-61
2023/07/01 10:07:56;;;;;;;4.38;1.30;;;;;;;;;;4879946;29;20204;-61
2023/07/01 10:10:23;;;;;;;2.65;1.17;;;;;;;;;;4881369;29;20055;-61
2023/07/01 10:12:51;;;;;;;3.53;1.15;;;;;;;;;;4881969;29;21047;-61
2023/07/01 10:15:24;;;;;;;4.57;1.75;;;;;;;;;;4879828;29;20032;-61
2023/07/01 10:17:50;;;;;;;;;;;;;;;;;;4881542;29;20093;-61
2023/07/01 10:20:26;;;;;;;7.63;2.03;;;;;;;;;;4880929;29;21147;-62
2023/07/01 10:22:59;;;;;;;6.78;2.20;;;;;;;;;;4881146;29;20032;-61
2023/07/01 10:25:25;;;;;;;;;;;;;;;;;;4881320;29;20037;-61
2023/07/01 10:28:00;;;;;;;6.22;2.60;;;;;;;;;;4880548;29;19925;-61
2023/07/01 10:30:26;;;;;;;6.40;3.13;;;;;;;;;;4880818;29;20028;-62
2023/07/01 10:32:52;;;;;;;5.47;3.30;;;;;;;;;;4880669;29;20121;-61
2023/07/01 10:35:19;;;;;;;7.78;3.17;;;;;;;;;;4880489;29;21323;-61
2023/07/01 10:38:05;;;;;;;8.52;3.58;;;;;;;;;;4880756;29;20068;-61
2023/07/01 10:40:31;;;;;;;5.53;3.13;;;;;;;;;;4880260;29;20031;-61
2023/07/01 10:43:16;;;;;;;10.75;3.47;;;;;;;;;;4880115;29;20450;-61
2023/07/01 10:45:42;;;;;;;4.90;2.97;;;;;;;;;;4881419;29;20036;-61
2023/07/01 10:48:17;;;;;;;8.32;3.80;;;;;;;;;;4880443;29;20044;-61
2023/07/01 10:51:02;;;;;;;5.10;3.60;;;;;;;;;;4879836;29;22136;-61
2023/07/01 10:53:30;;;;;;;5.78;3.08;;;;;;;;;;4880730;29;20036;-61
2023/07/01 10:56:13;;;;;;;5.43;2.60;;;;;;;;;;4880823;29;20040;-61
2023/07/01 10:58:39;;;;;;;4.50;2.72;;;;;;;;;;4881292;29;20046;-61
2023/07/01 11:01:06;;;;;;;3.83;2.08;;;;;;;;;;4881953;29;20039;-61
2023/07/01 11:03:38;;;;;;;4.57;2.30;;;;;;;;;;4881700;29;20407;-61
2023/07/01 11:06:07;;;;;;;6.30;2.70;;;;;;;;;;4879198;29;20559;-61
2023/07/01 11:08:52;;;;;;;4.85;2.55;;;;;;;;;;4880565;29;20051;-61
2023/07/01 11:11:28;;;;;;;3.47;2.22;;;;;;;;;;4879889;29;20048;-61
2023/07/01 11:13:58;;;;;;;5.35;3.13;;;;;;;;;;4879233;29;20041;-61
2023/07/01 11:16:26;;;;;;;8.02;3.85;;;;;;;;;;4880635;29;20047;-61
2023/07/01 11:18:53;;;;;;;5.90;3.97;;;;;;;;;;4879785;29;20064;-61
2023/07/01 11:21:20;;;;;;;5.93;4.50;;;;;;;;;;4881969;29;20921;-61
2023/07/01 11:23:52;;;;;;;8.15;4.35;;;;;;;;;;4881501;29;20512;-61
2023/07/01 11:26:19;;;;;;;5.45;3.85;;;;;;;;;;4881032;29;20043;-61
2023/07/01 11:28:45;;;;;;;6.20;3.72;;;;;;;;;;4881175;29;20040;-61
2023/07/01 11:31:18;;;;;;;9.23;4.15;;;;;;;;;;4881410;29;20174;-61
2023/07/01 11:33:48;;;;;;;9.25;4.63;;;;;;;;;;4881101;29;20035;-61
2023/07/01 11:36:14;;;;;;;7.85;4.38;;;;;;;;;;4881556;29;20676;-61
2023/07/01 11:38:43;;;;;;;7.57;4.55;;;;;;;;;;4880507;29;20032;-61
2023/07/01 11:41:12;;;;;;;8.45;4.70;;;;;;;;;;4881605;29;20547;-61
2023/07/01 11:43:39;;;;;;;8.23;5.45;;;;;;;;;;4883768;29;20024;-61
2023/07/01 11:46:05;;;;;;;7.53;4.88;;;;;;;;;;4883110;29;20036;-61
2023/07/01 11:48:32;;;;;;;8.27;5.60;;;;;;;;;;4884064;29;20040;-61
2023/07/01 11:50:58;;;;;;;7.47;5.78;;;;;;;;;;4883415;29;20048;-61
2023/07/01 11:53:28;;;;;;;8.70;6.68;;;;;;;;;;4884310;29;20151;-61
2023/07/01 11:55:56;;;;;;;9.43;6.50;;;;;;;;;;4883743;29;20048;-61
2023/07/01 11:58:28;;;;;;;9.10;6.53;;;;;;;;;;4884073;29;20028;-61
2023/07/01 12:00:55;;;;;;;9.43;7.00;;;;;;;;;;4884459;29;20024;-61
2023/07/01 12:03:21;;;;;;;9.43;7.10;;;;;;;;;;4884752;29;20044;-61
2023/07/01 12:05:47;;;;;;;9.90;6.57;;;;;;;;;;4882017;29;20044;-61
2023/07/01 12:08:13;;;;;;;10.40;7.03;;;;;;;;;;4883504;29;20091;-61
2023/07/01 12:10:41;;;;;;;10.18;6.28;;;;;;;;;;4881737;29;20419;-61
2023/07/01 12:13:07;;;;;;;11.20;6.30;;;;;;;;;;4883726;29;20039;-61
2023/07/01 12:15:33;;;;;;;11.35;5.65;;;;;;;;;;4882342;29;20051;-61
2023/07/01 12:18:18;;;;;;;9.55;5.75;;;;;;;;;;4884215;29;20048;-62
2023/07/01 12:20:44;;;;;;;10.05;5.22;;;;;;;;;;4883800;29;20075;-61
2023/07/01 12:23:10;;;;;;;7.38;5.30;;;;;;;;;;4883156;29;20040;-61
2023/07/01 12:25:36;;;;;;;6.70;4.57;;;;;;;;;;4883759;29;20579;-61
2023/07/01 12:28:04;;;;;;;7.88;5.15;;;;;;;;;;4883624;29;20044;-61
2023/07/01 12:30:30;;;;;;;7.40;4.90;;;;;;;;;;4882849;29;20500;-61
2023/07/01 12:32:56;;;;;;;13.30;5.45;;;;;;;;;;4883480;29;20044;-61
2023/07/01 12:35:22;;;;;;;8.23;4.60;;;;;;;;;;4882572;29;20037;-61
2023/07/01 12:37:49;;;;;;;12.07;5.20;;;;;;;;;;4869182;29;21189;-61
2023/07/01 12:40:15;;;;;;;11.13;5.43;;;;;;;;;;4881891;29;20107;-61
2023/07/01 12:42:41;;;;;;;7.30;4.10;;;;;;;;;;4882954;29;20036;-61
2023/07/01 12:45:08;;;;;;;7.80;4.18;;;;;;;;;;4882208;29;20051;-61
2023/07/01 12:47:34;;;;;;;9.73;3.63;;;;;;;;;;4883176;29;20035;-60
2023/07/01 12:50:00;;;;;;;6.00;2.97;;;;;;;;;;4883092;29;20036;-61
2023/07/01 12:52:26;;;;;;;7.47;3.67;;;;;;;;;;4881575;29;20078;-61
2023/07/01 12:54:52;;;;;;;5.70;3.42;;;;;;;;;;4881493;29;20155;-61
2023/07/01 12:57:20;;;;;;;6.68;4.03;;;;;;;;;;4881826;29;20107;-61
2023/07/01 12:59:46;;;;;;;7.97;3.75;;;;;;;;;;4882322;29;20154;-61
2023/07/01 13:02:13;;;;;;;5.43;2.97;;;;;;;;;;4882488;29;20032;-61
2023/07/01 13:04:39;;;;;;;6.07;3.22;;;;;;;;;;4880295;29;20115;-61
2023/07/01 13:07:05;;;;;;;5.13;3.33;;;;;;;;;;4865871;29;20080;-61
2023/07/01 13:09:35;;;;;;;5.15;3.38;;;;;;;;;;4881947;29;20095;-61
2023/07/01 13:12:01;;;;;;;7.10;3.58;;;;;;;;;;4882727;29;20040;-61
2023/07/01 13:14:30;;;;;;;5.47;2.90;;;;;;;;;;4880635;29;20032;-61
2023/07/01 13:16:56;;;;;;;5.60;2.53;;;;;;;;;;4882073;29;20112;-61
2023/07/01 13:19:22;;;;;;;3.83;2.30;;;;;;;;;;4882460;29;21253;-61
2023/07/01 13:21:49;;;;;;;5.97;2.28;;;;;;;;;;4882509;29;20502;-61
2023/07/01 13:24:15;;;;;;;8.55;3.00;;;;;;;;;;4881923;29;20034;-61
2023/07/01 13:26:46;;;;;;;4.50;2.22;;;;;;;;;;4882785;29;20524;-61
2023/07/01 13:29:13;;;;;;;5.78;2.15;;;;;;;;;;4883231;29;20032;-61
2023/07/01 13:31:40;;;;;;;6.30;2.63;;;;;;;;;;4882948;29;21814;-61
2023/07/01 13:34:06;;;;;;;3.95;2.40;;;;;;;;;;4884131;29;20048;-61
2023/07/01 13:36:37;;;;;;;7.15;2.83;;;;;;;;;;4883005;29;20039;-61
2023/07/01 13:39:06;;;;;;;8.75;2.47;;;;;;;;;;4883928;29;20032;-61
2023/07/01 13:41:32;;;;;;;4.82;1.95;;;;;;;;;;4882770;29;20143;-61
2023/07/01 13:44:00;;;;;;;5.65;2.00;;;;;;;;;;4883498;29;20425;-61
2023/07/01 13:46:37;;;;;;;7.53;1.95;;;;;;;;;;4883552;29;20262;-61
2023/07/01 13:49:04;;;;;;;4.93;1.90;;;;;;;;;;4882657;29;20576;-61
2023/07/01 13:51:32;;;;;;;4.85;2.05;;;;;;;;;;4883598;29;21008;-61
2023/07/01 13:53:58;;;;;;;6.38;2.10;;;;;;;;;;4882702;29;20037;-61
2023/07/01 13:56:24;;;;;;;5.75;2.13;;;;;;;;;;4883238;29;21320;-61
2023/07/01 13:58:50;;;;;;;3.40;1.63;;;;;;;;;;4882902;29;20551;-61
2023/07/01 14:01:16;;;;;;;6.13;2.00;;;;;;;;;;4882889;29;20860;-60
2023/07/01 14:03:45;;;;;;;4.55;1.60;;;;;;;;;;4882953;29;20032;-61
2023/07/01 14:06:11;;;;;;;3.53;1.80;;;;;;;;;;4881828;29;20040;-61
2023/07/01 14:08:37;;;;;;;3.45;1.50;;;;;;;;;;4883165;29;20039;-61
2023/07/01 14:11:03;;;;;;;3.90;1.77;;;;;;;;;;4882622;29;20041;-61
2023/07/01 14:13:30;;;;;;;5.53;2.00;;;;;;;;;;4883110;29;20024;-61
2023/07/01 14:15:56;;;;;;;4.55;2.20;;;;;;;;;;4881946;29;20160;-61
2023/07/01 14:18:27;;;;;;;4.22;2.40;;;;;;;;;;4882511;29;20178;-61
2023/07/01 14:20:53;;;;;;;5.38;2.35;;;;;;;;;;4882492;29;20036;-61
2023/07/01 14:23:22;;;;;;;5.43;2.40;;;;;;;;;;4882814;29;20031;-61
2023/07/01 14:25:50;;;;;;;14.25;3.33;;;;;;;;;;4883138;29;20047;-61
2023/07/01 14:28:17;;;;;;;5.97;2.92;;;;;;;;;;4882813;29;20060;-61
2023/07/01 14:31:07;;;;;;;5.63;2.83;;;;;;;;;;4883321;29;20032;-61
2023/07/01 14:33:48;;;;;;;7.28;3.28;;;;;;;;;;4882977;29;20037;-61
2023/07/01 14:36:15;;;;;;;7.82;4.32;;;;;;;;;;4866981;29;20860;-61
2023/07/01 14:38:45;;;;;;;6.38;4.22;;;;;;;;;;4882269;29;20555;-61
2023/07/01 14:41:15;;;;;;;7.50;4.63;;;;;;;;;;4883118;29;20749;-61
2023/07/01 14:43:41;;;;;;;8.30;4.38;;;;;;;;;;4883124;29;20040;-61